CheckWX is a tool to help pilots better visualize weather data.  It is not intended as a substitute for an official pre-flight weather briefing.

01:05:32 UTC

KBRL TAF
Southeast Iowa Regional Airport
Burlington, Iowa, USA
KBRL 140520Z 1406/1506 16007KT P6SM SKC FM141800 18011G18KT P6SM FEW250 FM150000 15007KT P6SM OVC250

Jul-14@
06:00 UTC

Jul-14 @ 06:00 UTC

Jul-14@
18:00 UTC

Jul-14 @ 18:00 UTC

TAF KBRL 140520Z 1406/1506 16007KT P6SM SKC

Expired

Wind
  • 160° at 7 KTS
Cloud Levels
  • Clear skies

Jul-14@
18:00 UTC

Jul-14 @ 18:00 UTC

Jul-15@
00:00 UTC

Jul-15 @ 00:00 UTC

FM141800 18011G18KT P6SM FEW250

Expired

Wind
  • 180° at 11 KTS
  • {Gusting to 18 KTS
Cloud Levels
  • Few at 25,000' AGL

Jul-15@
00:00 UTC

Jul-15 @ 00:00 UTC

Jul-15@
06:00 UTC

Jul-15 @ 06:00 UTC

FM150000 15007KT P6SM OVC250

From

From Standard forecast or significant change

Wind
  • 150° at 7 KTS
Cloud Levels
  • Overcast at 25,000' AGL